sensor_id;sensor_type;location;lat;lon;timestamp;temperature;humidity
44063;DHT22;29727;47.606;19.130;2023-05-20T05:10:22;17.10;86.00
44063;DHT22;29727;47.606;19.130;2023-05-20T05:12:49;17.10;86.60
44063;DHT22;29727;47.606;19.130;2023-05-20T05:15:15;17.20;87.00
44063;DHT22;29727;47.606;19.130;2023-05-20T05:17:40;17.20;87.10
44063;DHT22;29727;47.606;19.130;2023-05-20T05:20:06;17.20;87.20
44063;DHT22;29727;47.606;19.130;2023-05-20T05:22:33;17.30;86.90
44063;DHT22;29727;47.606;19.130;2023-05-20T05:25:02;17.40;86.40
44063;DHT22;29727;47.606;19.130;2023-05-20T05:27:28;17.40;85.60
44063;DHT22;29727;47.606;19.130;2023-05-20T05:29:53;17.50;84.70
44063;DHT22;29727;47.606;19.130;2023-05-20T05:32:19;17.50;85.30
44063;DHT22;29727;47.606;19.130;2023-05-20T05:34:45;17.60;84.30
44063;DHT22;29727;47.606;19.130;2023-05-20T05:37:11;17.60;84.60
44063;DHT22;29727;47.606;19.130;2023-05-20T05:39:37;17.70;84.00
44063;DHT22;29727;47.606;19.130;2023-05-20T05:42:03;17.70;84.50
44063;DHT22;29727;47.606;19.130;2023-05-20T05:44:29;17.80;83.80
44063;DHT22;29727;47.606;19.130;2023-05-20T05:46:55;17.80;83.00
44063;DHT22;29727;47.606;19.130;2023-05-20T05:49:20;17.90;83.10
44063;DHT22;29727;47.606;19.130;2023-05-20T05:51:46;17.90;83.30
44063;DHT22;29727;47.606;19.130;2023-05-20T05:54:12;18.00;82.80
44063;DHT22;29727;47.606;19.130;2023-05-20T05:56:37;18.10;82.40
44063;DHT22;29727;47.606;19.130;2023-05-20T05:59:04;18.10;82.10
44063;DHT22;29727;47.606;19.130;2023-05-20T06:01:29;18.20;81.40
44063;DHT22;29727;47.606;19.130;2023-05-20T06:03:55;18.30;81.50
44063;DHT22;29727;47.606;19.130;2023-05-20T06:06:21;18.30;81.60
44063;DHT22;29727;47.606;19.130;2023-05-20T06:08:47;18.40;81.70
44063;DHT22;29727;47.606;19.130;2023-05-20T06:11:12;18.40;81.00
44063;DHT22;29727;47.606;19.130;2023-05-20T06:13:38;18.50;80.80
44063;DHT22;29727;47.606;19.130;2023-05-20T06:16:04;18.60;80.80
44063;DHT22;29727;47.606;19.130;2023-05-20T06:18:29;18.70;80.70
44063;DHT22;29727;47.606;19.130;2023-05-20T06:20:58;18.70;79.40
44063;DHT22;29727;47.606;19.130;2023-05-20T06:23:25;18.80;75.80
44063;DHT22;29727;47.606;19.130;2023-05-20T06:25:51;18.90;75.00
44063;DHT22;29727;47.606;19.130;2023-05-20T06:28:16;19.00;75.60
44063;DHT22;29727;47.606;19.130;2023-05-20T06:30:43;19.10;74.40
44063;DHT22;29727;47.606;19.130;2023-05-20T06:33:08;19.30;74.10
44063;DHT22;29727;47.606;19.130;2023-05-20T06:35:34;19.40;73.10
44063;DHT22;29727;47.606;19.130;2023-05-20T06:38:00;19.50;71.70
44063;DHT22;29727;47.606;19.130;2023-05-20T06:40:27;19.60;71.10
44063;DHT22;29727;47.606;19.130;2023-05-20T06:42:52;19.80;71.70
44063;DHT22;29727;47.606;19.130;2023-05-20T06:45:18;19.90;71.30
44063;DHT22;29727;47.606;19.130;2023-05-20T06:47:44;20.00;72.00
44063;DHT22;29727;47.606;19.130;2023-05-20T06:50:10;20.10;70.80
44063;DHT22;29727;47.606;19.130;2023-05-20T06:52:36;20.20;70.10
44063;DHT22;29727;47.606;19.130;2023-05-20T06:55:03;20.30;69.30
44063;DHT22;29727;47.606;19.130;2023-05-20T06:57:29;20.40;69.60
44063;DHT22;29727;47.606;19.130;2023-05-20T06:59:54;20.50;69.10
44063;DHT22;29727;47.606;19.130;2023-05-20T07:02:21;20.60;67.60
44063;DHT22;29727;47.606;19.130;2023-05-20T07:04:47;20.70;68.90
44063;DHT22;29727;47.606;19.130;2023-05-20T07:07:13;20.80;68.70
44063;DHT22;29727;47.606;19.130;2023-05-20T07:09:38;20.90;67.50
44063;DHT22;29727;47.606;19.130;2023-05-20T07:12:04;21.00;69.10
44063;DHT22;29727;47.606;19.130;2023-05-20T07:14:30;21.10;67.50
44063;DHT22;29727;47.606;19.130;2023-05-20T07:16:56;21.20;66.40
44063;DHT22;29727;47.606;19.130;2023-05-20T07:19:22;21.30;66.60
44063;DHT22;29727;47.606;19.130;2023-05-20T07:21:48;21.30;65.30
44063;DHT22;29727;47.606;19.130;2023-05-20T07:24:17;21.40;65.10
44063;DHT22;29727;47.606;19.130;2023-05-20T07:26:43;21.50;66.10
44063;DHT22;29727;47.606;19.130;2023-05-20T07:29:09;21.60;66.20
44063;DHT22;29727;47.606;19.130;2023-05-20T07:31:35;21.60;66.20
44063;DHT22;29727;47.606;19.130;2023-05-20T07:34:00;21.70;64.90
44063;DHT22;29727;47.606;19.130;2023-05-20T07:36:27;21.80;64.70
44063;DHT22;29727;47.606;19.130;2023-05-20T07:38:53;21.90;62.80
44063;DHT22;29727;47.606;19.130;2023-05-20T07:41:19;21.90;63.70
44063;DHT22;29727;47.606;19.130;2023-05-20T07:43:45;21.90;64.90
44063;DHT22;29727;47.606;19.130;2023-05-20T07:46:11;22.00;65.00
44063;DHT22;29727;47.606;19.130;2023-05-20T07:48:37;22.10;65.60
44063;DHT22;29727;47.606;19.130;2023-05-20T07:51:02;22.20;63.80
44063;DHT22;29727;47.606;19.130;2023-05-20T07:53:28;22.30;64.90
44063;DHT22;29727;47.606;19.130;2023-05-20T07:55:54;22.40;66.30
44063;DHT22;29727;47.606;19.130;2023-05-20T07:58:21;22.50;63.00
44063;DHT22;29727;47.606;19.130;2023-05-20T08:00:46;22.60;63.90
44063;DHT22;29727;47.606;19.130;2023-05-20T08:03:13;22.70;62.90
44063;DHT22;29727;47.606;19.130;2023-05-20T08:05:40;22.80;63.20
44063;DHT22;29727;47.606;19.130;2023-05-20T08:08:06;22.80;63.80
44063;DHT22;29727;47.606;19.130;2023-05-20T08:10:31;22.90;62.80
44063;DHT22;29727;47.606;19.130;2023-05-20T08:12:57;23.00;63.20
44063;DHT22;29727;47.606;19.130;2023-05-20T08:15:23;23.10;61.90
44063;DHT22;29727;47.606;19.130;2023-05-20T08:17:48;23.30;61.20
44063;DHT22;29727;47.606;19.130;2023-05-20T08:20:14;23.20;63.00
44063;DHT22;29727;47.606;19.130;2023-05-20T08:22:41;23.40;62.60
44063;DHT22;29727;47.606;19.130;2023-05-20T08:25:08;23.40;62.80
44063;DHT22;29727;47.606;19.130;2023-05-20T08:27:35;23.50;62.60
44063;DHT22;29727;47.606;19.130;2023-05-20T08:30:05;23.60;61.60
44063;DHT22;29727;47.606;19.130;2023-05-20T08:32:32;23.70;62.40
44063;DHT22;29727;47.606;19.130;2023-05-20T08:34:58;23.80;63.10
44063;DHT22;29727;47.606;19.130;2023-05-20T08:37:26;23.90;61.50
44063;DHT22;29727;47.606;19.130;2023-05-20T08:39:52;24.00;61.80
44063;DHT22;29727;47.606;19.130;2023-05-20T08:42:23;24.10;62.50
44063;DHT22;29727;47.606;19.130;2023-05-20T08:44:51;24.20;60.00
44063;DHT22;29727;47.606;19.130;2023-05-20T08:47:21;24.20;60.70
44063;DHT22;29727;47.606;19.130;2023-05-20T08:49:48;24.30;59.10
44063;DHT22;29727;47.606;19.130;2023-05-20T08:52:16;24.40;60.80
44063;DHT22;29727;47.606;19.130;2023-05-20T08:54:44;24.40;59.60
44063;DHT22;29727;47.606;19.130;2023-05-20T08:57:11;24.50;59.70
44063;DHT22;29727;47.606;19.130;2023-05-20T08:59:43;24.60;59.50
44063;DHT22;29727;47.606;19.130;2023-05-20T09:02:09;24.60;60.00
44063;DHT22;29727;47.606;19.130;2023-05-20T09:04:36;24.70;61.00
44063;DHT22;29727;47.606;19.130;2023-05-20T09:07:02;24.80;60.60
44063;DHT22;29727;47.606;19.130;2023-05-20T09:09:29;24.90;59.40
44063;DHT22;29727;47.606;19.130;2023-05-20T09:11:55;24.90;58.30
44063;DHT22;29727;47.606;19.130;2023-05-20T09:14:20;25.10;60.30
44063;DHT22;29727;47.606;19.130;2023-05-20T09:16:49;25.20;59.70
44063;DHT22;29727;47.606;19.130;2023-05-20T09:19:16;25.30;58.10
44063;DHT22;29727;47.606;19.130;2023-05-20T09:21:41;25.40;57.70
44063;DHT22;29727;47.606;19.130;2023-05-20T09:24:08;25.40;56.50
44063;DHT22;29727;47.606;19.130;2023-05-20T09:26:33;25.50;56.30
44063;DHT22;29727;47.606;19.130;2023-05-20T09:28:59;25.50;56.70
44063;DHT22;29727;47.606;19.130;2023-05-20T09:31:26;25.60;57.70
44063;DHT22;29727;47.606;19.130;2023-05-20T09:33:53;25.70;57.00
44063;DHT22;29727;47.606;19.130;2023-05-20T09:36:22;25.70;56.60
44063;DHT22;29727;47.606;19.130;2023-05-20T09:38:51;25.90;56.50
44063;DHT22;29727;47.606;19.130;2023-05-20T09:41:22;25.90;57.20
44063;DHT22;29727;47.606;19.130;2023-05-20T09:43:49;26.00;56.40
44063;DHT22;29727;47.606;19.130;2023-05-20T09:46:17;26.10;54.30
44063;DHT22;29727;47.606;19.130;2023-05-20T09:48:44;26.10;54.30
44063;DHT22;29727;47.606;19.130;2023-05-20T09:51:11;26.20;54.40
44063;DHT22;29727;47.606;19.130;2023-05-20T09:53:38;26.30;53.70
44063;DHT22;29727;47.606;19.130;2023-05-20T09:56:03;26.40;54.40
44063;DHT22;29727;47.606;19.130;2023-05-20T09:58:29;26.40;52.40
44063;DHT22;29727;47.606;19.130;2023-05-20T10:00:55;26.40;54.20
44063;DHT22;29727;47.606;19.130;2023-05-20T10:03:22;26.40;53.30
44063;DHT22;29727;47.606;19.130;2023-05-20T10:11:39;26.50;50.70
44063;DHT22;29727;47.606;19.130;2023-05-20T10:17:19;26.70;51.30
44063;DHT22;29727;47.606;19.130;2023-05-20T10:19:46;26.80;51.50
44063;DHT22;29727;47.606;19.130;2023-05-20T10:22:14;26.90;51.40
44063;DHT22;29727;47.606;19.130;2023-05-20T10:24:43;27.00;50.70
44063;DHT22;29727;47.606;19.130;2023-05-20T10:27:13;27.10;51.80
44063;DHT22;29727;47.606;19.130;2023-05-20T10:32:21;27.30;50.90
44063;DHT22;29727;47.606;19.130;2023-05-20T10:34:49;27.40;51.00
44063;DHT22;29727;47.606;19.130;2023-05-20T10:37:28;27.60;49.30
44063;DHT22;29727;47.606;19.130;2023-05-20T10:40:24;27.60;49.80
44063;DHT22;29727;47.606;19.130;2023-05-20T10:42:49;27.70;47.70
44063;DHT22;29727;47.606;19.130;2023-05-20T10:45:28;27.90;48.50
44063;DHT22;29727;47.606;19.130;2023-05-20T10:47:56;27.90;47.60
44063;DHT22;29727;47.606;19.130;2023-05-20T10:50:33;28.00;49.00
44063;DHT22;29727;47.606;19.130;2023-05-20T10:53:04;28.10;48.90
44063;DHT22;29727;47.606;19.130;2023-05-20T10:55:40;28.20;49.10
44063;DHT22;29727;47.606;19.130;2023-05-20T10:58:06;28.20;49.40
44063;DHT22;29727;47.606;19.130;2023-05-20T11:00:35;28.30;49.50
44063;DHT22;29727;47.606;19.130;2023-05-20T11:03:05;28.40;50.20
44063;DHT22;29727;47.606;19.130;2023-05-20T11:05:31;28.40;48.60
44063;DHT22;29727;47.606;19.130;2023-05-20T11:08:01;28.50;48.20
44063;DHT22;29727;47.606;19.130;2023-05-20T11:10:27;28.50;45.20
44063;DHT22;29727;47.606;19.130;2023-05-20T11:12:55;28.50;45.80
44063;DHT22;29727;47.606;19.130;2023-05-20T11:15:21;28.60;47.90
44063;DHT22;29727;47.606;19.130;2023-05-20T11:17:59;28.60;46.70
44063;DHT22;29727;47.606;19.130;2023-05-20T11:20:26;28.60;48.20
44063;DHT22;29727;47.606;19.130;2023-05-20T11:22:52;28.70;49.00
44063;DHT22;29727;47.606;19.130;2023-05-20T11:25:19;28.70;47.30
44063;DHT22;29727;47.606;19.130;2023-05-20T11:27:45;28.70;48.00
44063;DHT22;29727;47.606;19.130;2023-05-20T11:30:14;28.80;48.60
44063;DHT22;29727;47.606;19.130;2023-05-20T11:32:42;28.90;47.30
44063;DHT22;29727;47.606;19.130;2023-05-20T11:35:20;29.00;48.60
44063;DHT22;29727;47.606;19.130;2023-05-20T11:37:56;29.20;47.60
44063;DHT22;29727;47.606;19.130;2023-05-20T11:40:25;29.20;48.10
44063;DHT22;29727;47.606;19.130;2023-05-20T11:42:55;29.30;48.60
44063;DHT22;29727;47.606;19.130;2023-05-20T11:45:21;29.40;45.70
44063;DHT22;29727;47.606;19.130;2023-05-20T11:48:00;29.30;49.00
44063;DHT22;29727;47.606;19.130;2023-05-20T11:50:26;29.40;47.90
44063;DHT22;29727;47.606;19.130;2023-05-20T11:52:58;29.40;47.00
44063;DHT22;29727;47.606;19.130;2023-05-20T11:55:28;29.40;47.50
44063;DHT22;29727;47.606;19.130;2023-05-20T11:57:54;29.50;47.40
44063;DHT22;29727;47.606;19.130;2023-05-20T12:00:22;29.50;47.70
44063;DHT22;29727;47.606;19.130;2023-05-20T12:02:48;29.50;48.20
44063;DHT22;29727;47.606;19.130;2023-05-20T12:05:14;29.50;47.60
44063;DHT22;29727;47.606;19.130;2023-05-20T12:07:40;29.50;44.20
44063;DHT22;29727;47.606;19.130;2023-05-20T12:10:06;29.50;46.50
44063;DHT22;29727;47.606;19.130;2023-05-20T12:12:32;29.60;47.30
44063;DHT22;29727;47.606;19.130;2023-05-20T12:14:58;29.60;47.40
44063;DHT22;29727;47.606;19.130;2023-05-20T12:17:23;29.60;44.40
44063;DHT22;29727;47.606;19.130;2023-05-20T12:19:49;29.70;46.40
44063;DHT22;29727;47.606;19.130;2023-05-20T12:22:15;29.70;45.80
44063;DHT22;29727;47.606;19.130;2023-05-20T12:24:40;29.90;44.00
44063;DHT22;29727;47.606;19.130;2023-05-20T12:27:06;29.90;44.40
44063;DHT22;29727;47.606;19.130;2023-05-20T12:29:32;29.90;45.60
44063;DHT22;29727;47.606;19.130;2023-05-20T12:31:59;29.90;44.60
44063;DHT22;29727;47.606;19.130;2023-05-20T12:34:25;29.90;44.20
44063;DHT22;29727;47.606;19.130;2023-05-20T12:36:51;29.90;45.10
44063;DHT22;29727;47.606;19.130;2023-05-20T12:39:17;29.90;45.50
44063;DHT22;29727;47.606;19.130;2023-05-20T12:41:43;30.00;44.90
44063;DHT22;29727;47.606;19.130;2023-05-20T12:44:09;30.00;46.40
44063;DHT22;29727;47.606;19.130;2023-05-20T12:46:36;30.10;46.00
44063;DHT22;29727;47.606;19.130;2023-05-20T12:49:02;30.10;44.30
44063;DHT22;29727;47.606;19.130;2023-05-20T12:51:29;30.20;44.80
44063;DHT22;29727;47.606;19.130;2023-05-20T12:53:55;30.20;45.80
44063;DHT22;29727;47.606;19.130;2023-05-20T12:56:20;30.30;44.20
44063;DHT22;29727;47.606;19.130;2023-05-20T12:58:47;30.20;44.80
44063;DHT22;29727;47.606;19.130;2023-05-20T13:01:12;30.30;44.30
44063;DHT22;29727;47.606;19.130;2023-05-20T13:03:38;30.20;44.70
44063;DHT22;29727;47.606;19.130;2023-05-20T13:06:04;30.20;43.60
44063;DHT22;29727;47.606;19.130;2023-05-20T13:08:30;30.20;44.70
44063;DHT22;29727;47.606;19.130;2023-05-20T13:10:55;30.30;44.50
44063;DHT22;29727;47.606;19.130;2023-05-20T13:13:22;30.40;45.60
44063;DHT22;29727;47.606;19.130;2023-05-20T13:15:48;30.40;43.20
44063;DHT22;29727;47.606;19.130;2023-05-20T13:18:14;30.40;43.70
44063;DHT22;29727;47.606;19.130;2023-05-20T13:20:44;30.40;43.60
44063;DHT22;29727;47.606;19.130;2023-05-20T13:23:10;30.40;43.60
44063;DHT22;29727;47.606;19.130;2023-05-20T13:25:36;30.30;43.30
44063;DHT22;29727;47.606;19.130;2023-05-20T13:28:03;30.20;43.20
44063;DHT22;29727;47.606;19.130;2023-05-20T13:30:29;30.20;44.20
44063;DHT22;29727;47.606;19.130;2023-05-20T13:32:55;30.10;43.70
44063;DHT22;29727;47.606;19.130;2023-05-20T13:35:21;30.00;43.30
44063;DHT22;29727;47.606;19.130;2023-05-20T13:37:46;30.10;43.80
44063;DHT22;29727;47.606;19.130;2023-05-20T13:40:12;30.00;44.20
44063;DHT22;29727;47.606;19.130;2023-05-20T13:42:38;30.00;43.20
44063;DHT22;29727;47.606;19.130;2023-05-20T13:45:04;30.00;42.90
44063;DHT22;29727;47.606;19.130;2023-05-20T13:47:30;30.00;44.30
44063;DHT22;29727;47.606;19.130;2023-05-20T13:49:56;29.90;44.20
44063;DHT22;29727;47.606;19.130;2023-05-20T13:52:22;29.90;45.20
44063;DHT22;29727;47.606;19.130;2023-05-20T13:54:48;30.00;45.20
44063;DHT22;29727;47.606;19.130;2023-05-20T13:57:16;30.00;43.60
44063;DHT22;29727;47.606;19.130;2023-05-20T13:59:42;30.00;42.90
44063;DHT22;29727;47.606;19.130;2023-05-20T14:02:08;29.80;42.00
44063;DHT22;29727;47.606;19.130;2023-05-20T14:04:34;29.80;43.00
44063;DHT22;29727;47.606;19.130;2023-05-20T14:07:07;29.80;44.50
44063;DHT22;29727;47.606;19.130;2023-05-20T14:09:32;29.70;45.90
44063;DHT22;29727;47.606;19.130;2023-05-20T14:11:58;29.70;45.20
44063;DHT22;29727;47.606;19.130;2023-05-20T14:14:24;29.60;45.80
44063;DHT22;29727;47.606;19.130;2023-05-20T14:16:49;29.60;44.90
44063;DHT22;29727;47.606;19.130;2023-05-20T14:19:15;29.60;43.10
44063;DHT22;29727;47.606;19.130;2023-05-20T14:21:41;29.50;44.10
44063;DHT22;29727;47.606;19.130;2023-05-20T14:24:06;29.50;41.90
44063;DHT22;29727;47.606;19.130;2023-05-20T14:26:32;29.30;41.90
44063;DHT22;29727;47.606;19.130;2023-05-20T14:28:59;29.20;42.10
44063;DHT22;29727;47.606;19.130;2023-05-20T14:31:25;29.10;41.90
44063;DHT22;29727;47.606;19.130;2023-05-20T14:33:51;28.90;43.30
44063;DHT22;29727;47.606;19.130;2023-05-20T14:38:43;28.70;43.50
44063;DHT22;29727;47.606;19.130;2023-05-20T14:41:08;28.70;44.30
44063;DHT22;29727;47.606;19.130;2023-05-20T14:43:34;28.70;43.10
44063;DHT22;29727;47.606;19.130;2023-05-20T14:46:01;28.60;44.50
44063;DHT22;29727;47.606;19.130;2023-05-20T14:48:27;28.60;44.00
44063;DHT22;29727;47.606;19.130;2023-05-20T14:50:53;28.60;42.80
44063;DHT22;29727;47.606;19.130;2023-05-20T14:53:19;28.60;44.60
44063;DHT22;29727;47.606;19.130;2023-05-20T14:55:44;28.60;46.50
44063;DHT22;29727;47.606;19.130;2023-05-20T14:58:10;28.60;44.90
44063;DHT22;29727;47.606;19.130;2023-05-20T15:00:36;28.50;44.00
44063;DHT22;29727;47.606;19.130;2023-05-20T15:03:02;28.50;44.50
44063;DHT22;29727;47.606;19.130;2023-05-20T15:05:27;28.50;45.40
44063;DHT22;29727;47.606;19.130;2023-05-20T15:07:53;28.40;44.30
44063;DHT22;29727;47.606;19.130;2023-05-20T15:10:18;28.40;44.40
44063;DHT22;29727;47.606;19.130;2023-05-20T15:12:44;28.30;44.50
44063;DHT22;29727;47.606;19.130;2023-05-20T15:15:10;28.20;45.10
44063;DHT22;29727;47.606;19.130;2023-05-20T15:17:36;28.20;45.80
44063;DHT22;29727;47.606;19.130;2023-05-20T15:20:01;28.10;45.60
44063;DHT22;29727;47.606;19.130;2023-05-20T15:22:28;28.00;46.70
44063;DHT22;29727;47.606;19.130;2023-05-20T15:24:53;28.00;47.60
44063;DHT22;29727;47.606;19.130;2023-05-20T15:27:19;28.00;47.10
44063;DHT22;29727;47.606;19.130;2023-05-20T15:29:45;28.00;47.40
44063;DHT22;29727;47.606;19.130;2023-05-20T15:32:11;28.00;47.50
44063;DHT22;29727;47.606;19.130;2023-05-20T15:42:36;27.70;47.40
44063;DHT22;29727;47.606;19.130;2023-05-20T15:45:02;27.70;48.10
44063;DHT22;29727;47.606;19.130;2023-05-20T15:47:27;27.60;47.80
44063;DHT22;29727;47.606;19.130;2023-05-20T15:49:53;27.50;47.80
44063;DHT22;29727;47.606;19.130;2023-05-20T15:52:21;27.50;47.20
44063;DHT22;29727;47.606;19.130;2023-05-20T15:54:46;27.40;48.00
44063;DHT22;29727;47.606;19.130;2023-05-20T15:57:12;27.30;48.10
44063;DHT22;29727;47.606;19.130;2023-05-20T15:59:37;27.30;47.10
44063;DHT22;29727;47.606;19.130;2023-05-20T16:02:03;27.20;48.80
44063;DHT22;29727;47.606;19.130;2023-05-20T16:04:29;27.20;46.90
44063;DHT22;29727;47.606;19.130;2023-05-20T16:06:54;27.10;47.80
44063;DHT22;29727;47.606;19.130;2023-05-20T16:09:20;27.10;48.50
44063;DHT22;29727;47.606;19.130;2023-05-20T16:11:46;27.10;47.90
44063;DHT22;29727;47.606;19.130;2023-05-20T16:14:12;27.00;47.60
44063;DHT22;29727;47.606;19.130;2023-05-20T16:16:37;27.00;48.30
44063;DHT22;29727;47.606;19.130;2023-05-20T16:19:03;26.90;47.60
44063;DHT22;29727;47.606;19.130;2023-05-20T16:21:29;26.90;47.40
44063;DHT22;29727;47.606;19.130;2023-05-20T16:23:55;26.80;47.80
44063;DHT22;29727;47.606;19.130;2023-05-20T16:26:21;26.80;47.80
44063;DHT22;29727;47.606;19.130;2023-05-20T16:28:47;26.80;49.00
44063;DHT22;29727;47.606;19.130;2023-05-20T16:31:12;26.80;47.50
44063;DHT22;29727;47.606;19.130;2023-05-20T16:33:38;26.80;48.10
44063;DHT22;29727;47.606;19.130;2023-05-20T16:36:04;26.70;47.50
44063;DHT22;29727;47.606;19.130;2023-05-20T16:38:30;26.70;48.60
44063;DHT22;29727;47.606;19.130;2023-05-20T16:40:56;26.70;48.20
44063;DHT22;29727;47.606;19.130;2023-05-20T16:43:22;26.70;47.60
44063;DHT22;29727;47.606;19.130;2023-05-20T16:45:48;26.60;47.20
44063;DHT22;29727;47.606;19.130;2023-05-20T16:48:13;26.60;48.30
44063;DHT22;29727;47.606;19.130;2023-05-20T16:50:39;26.60;48.70
44063;DHT22;29727;47.606;19.130;2023-05-20T16:53:05;26.50;47.80
44063;DHT22;29727;47.606;19.130;2023-05-20T16:55:31;26.50;49.10
44063;DHT22;29727;47.606;19.130;2023-05-20T16:57:56;26.50;48.10
44063;DHT22;29727;47.606;19.130;2023-05-20T17:00:22;26.50;49.50
44063;DHT22;29727;47.606;19.130;2023-05-20T17:02:48;26.40;48.50
44063;DHT22;29727;47.606;19.130;2023-05-20T17:05:14;26.40;48.40
44063;DHT22;29727;47.606;19.130;2023-05-20T17:07:39;26.40;47.90
44063;DHT22;29727;47.606;19.130;2023-05-20T17:10:05;26.40;48.80
44063;DHT22;29727;47.606;19.130;2023-05-20T17:12:31;26.30;48.00
44063;DHT22;29727;47.606;19.130;2023-05-20T17:14:57;26.30;47.90
44063;DHT22;29727;47.606;19.130;2023-05-20T17:17:22;26.30;47.60
44063;DHT22;29727;47.606;19.130;2023-05-20T17:19:48;26.30;47.60
44063;DHT22;29727;47.606;19.130;2023-05-20T17:22:14;26.30;46.90
44063;DHT22;29727;47.606;19.130;2023-05-20T17:24:39;26.30;47.30
44063;DHT22;29727;47.606;19.130;2023-05-20T17:27:05;26.30;46.90
44063;DHT22;29727;47.606;19.130;2023-05-20T17:29:31;26.20;47.00
44063;DHT22;29727;47.606;19.130;2023-05-20T17:31:56;26.20;47.20
44063;DHT22;29727;47.606;19.130;2023-05-20T17:34:22;26.10;46.40
44063;DHT22;29727;47.606;19.130;2023-05-20T17:36:48;26.10;47.00
44063;DHT22;29727;47.606;19.130;2023-05-20T17:39:13;26.10;47.50
44063;DHT22;29727;47.606;19.130;2023-05-20T17:41:39;26.10;47.90
44063;DHT22;29727;47.606;19.130;2023-05-20T17:44:05;26.10;47.90
44063;DHT22;29727;47.606;19.130;2023-05-20T17:46:32;26.00;48.10
44063;DHT22;29727;47.606;19.130;2023-05-20T17:48:57;26.00;47.90
44063;DHT22;29727;47.606;19.130;2023-05-20T17:51:23;25.90;47.40
44063;DHT22;29727;47.606;19.130;2023-05-20T17:53:49;25.90;47.90
44063;DHT22;29727;47.606;19.130;2023-05-20T17:56:14;25.80;47.10
44063;DHT22;29727;47.606;19.130;2023-05-20T17:58:40;25.80;47.70
44063;DHT22;29727;47.606;19.130;2023-05-20T18:01:06;25.80;50.10
44063;DHT22;29727;47.606;19.130;2023-05-20T18:03:34;25.70;48.90
44063;DHT22;29727;47.606;19.130;2023-05-20T18:06:00;25.70;50.10
44063;DHT22;29727;47.606;19.130;2023-05-20T18:08:26;25.60;50.10
44063;DHT22;29727;47.606;19.130;2023-05-20T18:10:51;25.60;50.20
44063;DHT22;29727;47.606;19.130;2023-05-20T18:13:17;25.60;50.40
44063;DHT22;29727;47.606;19.130;2023-05-20T18:15:43;25.50;50.90
44063;DHT22;29727;47.606;19.130;2023-05-20T18:18:08;25.40;50.30
44063;DHT22;29727;47.606;19.130;2023-05-20T18:20:34;25.30;50.30
44063;DHT22;29727;47.606;19.130;2023-05-20T18:23:00;25.30;50.80
44063;DHT22;29727;47.606;19.130;2023-05-20T18:25:25;25.20;50.80
44063;DHT22;29727;47.606;19.130;2023-05-20T18:27:51;25.10;51.00
44063;DHT22;29727;47.606;19.130;2023-05-20T18:30:17;25.10;51.80
44063;DHT22;29727;47.606;19.130;2023-05-20T18:32:43;25.00;52.50
44063;DHT22;29727;47.606;19.130;2023-05-20T18:35:09;24.80;52.30
44063;DHT22;29727;47.606;19.130;2023-05-20T18:37:34;24.80;52.90
44063;DHT22;29727;47.606;19.130;2023-05-20T18:40:00;24.80;52.90
44063;DHT22;29727;47.606;19.130;2023-05-20T18:42:26;24.70;53.40
44063;DHT22;29727;47.606;19.130;2023-05-20T18:44:52;24.60;53.40
44063;DHT22;29727;47.606;19.130;2023-05-20T18:47:18;24.50;53.40
44063;DHT22;29727;47.606;19.130;2023-05-20T18:49:43;24.50;53.60
44063;DHT22;29727;47.606;19.130;2023-05-20T18:52:09;24.40;53.40
44063;DHT22;29727;47.606;19.130;2023-05-20T18:54:35;24.40;53.20
44063;DHT22;29727;47.606;19.130;2023-05-20T18:57:01;24.20;53.40
44063;DHT22;29727;47.606;19.130;2023-05-20T18:59:31;24.20;53.80
44063;DHT22;29727;47.606;19.130;2023-05-20T19:01:57;24.10;54.10
44063;DHT22;29727;47.606;19.130;2023-05-20T19:04:23;24.00;54.20
44063;DHT22;29727;47.606;19.130;2023-05-20T19:06:49;23.90;54.20
44063;DHT22;29727;47.606;19.130;2023-05-20T19:09:16;23.80;54.40
